Latest Weather Observations for Borroloola

IDD60801

Issued at 5:31 pm CST Monday 25 September 2017 (issued every 30 minutes, with the page automatically refreshed every 10 minutes)

About weather observations | Map of weather stations | Latest weather observations for NT | Other Formats
Station Details ID: 014723 Name: BORROLOOLA AIRPORT Lat: -16.08 Lon: 136.30 Height: 16.1 m
Data from the previous 72 hours. | See also: Recent months at Borroloola
Date/Time
CST
Temp
°C
App
Temp
°C
Dew
Point
°C
Rel
Hum
%
Delta-T
°C
Wind Press
QNH
hPa
Press
MSL
hPa
Rain since
9am
mm
Dir  Spd
km/h
Gust
km/h
Spd
kts
Gust
kts
25/05:30pm 31.9 29.2 11.7 29 11.8 NNE 17 22 9 12 1010.0 1009.9 0.0
25/05:00pm 32.5 29.5 10.5 26 12.7 NNE 17 24 9 13 1009.7 1009.6 0.0
25/04:30pm 33.5 30.0 10.2 24 13.4 NNE 19 26 10 14 1009.5 1009.4 0.0
25/04:00pm 34.2 30.8 11.4 25 13.4 NNE 20 30 11 16 1009.4 1009.3 0.0
25/03:30pm 34.8 31.6 9.9 22 14.4 NNE 17 28 9 15 1009.3 1009.2 0.0
25/03:00pm 35.5 31.5 9.1 20 15.1 NNE 20 32 11 17 1009.6 1009.5 0.0
25/02:30pm 35.1 31.6 10.9 23 14.2 NE 20 33 11 18 1009.7 1009.6 0.0
25/02:00pm 34.7 31.5 11.2 24 13.8 NNE 19 28 10 15 1010.2 1010.1 0.0
25/01:30pm 35.3 32.4 12.3 25 13.8 NNE 19 26 10 14 1010.6 1010.5 0.0
25/01:00pm 33.9 30.8 13.4 29 12.4 NNE 22 33 12 18 1011.0 1010.9 0.0
25/12:30pm 34.6 32.0 15.0 31 12.2 NNE 22 30 12 16 1011.4 1011.3 0.0
25/12:00pm 34.6 34.6 17.3 35 11.1 NE 13 20 7 11 1011.8 1011.7 0.0
25/11:30am 33.5 33.0 16.8 36 10.6 N 15 22 8 12 1012.5 1012.4 0.0
25/11:00am 32.7 32.9 18.5 43 9.2 NNW 15 24 8 13 1013.0 1012.9 0.0
25/10:30am 32.0 32.5 19.3 47 8.3 N 15 22 8 12 1013.3 1013.2 0.0
25/10:00am 31.0 30.6 18.0 45 8.3 NNW 17 28 9 15 1013.6 1013.5 0.0
25/09:30am 29.3 29.2 19.6 56 6.3 WNW 19 24 10 13 1013.6 1013.5 0.0
25/09:00am 28.6 28.8 20.6 62 5.3 NW 20 28 11 15 1013.8 1013.7 0.0
25/08:30am 27.1 28.7 22.1 74 3.4 NNW 17 20 9 11 1013.7 1013.6 0.0
25/08:00am 25.2 27.8 21.9 82 2.2 NNW 11 19 6 10 1013.5 1013.4 0.0
25/07:30am 24.2 28.1 21.9 87 1.5 NW 4 7 2 4 1013.2 1013.1 0.0
25/07:00am 22.4 26.4 20.5 89 1.2 CALM 0 0 0 0 1012.8 1012.7 0.0
25/06:30am 21.5 25.0 19.6 89 1.2 CALM 0 0 0 0 1012.5 1012.4 0.0
25/06:00am 20.8 23.7 18.2 85 1.6 CALM 0 0 0 0 1011.9 1011.8 0.0
25/05:30am 20.8 23.9 18.6 87 1.4 CALM 0 0 0 0 1011.6 1011.5 0.0
25/05:00am 20.9 24.2 19.2 90 1.1 CALM 0 0 0 0 1011.1 1011.0 0.0
25/04:30am 20.8 23.9 18.6 87 1.4 CALM 0 0 0 0 1010.7 1010.6 0.0
25/04:00am 20.7 23.3 17.5 82 2.0 CALM 0 0 0 0 1010.3 1010.2 0.0
25/03:30am 21.1 24.4 19.2 89 1.2 CALM 0 0 0 0 1010.2 1010.1 0.0
25/03:00am 21.1 24.1 18.5 85 1.6 CALM 0 0 0 0 1010.2 1010.1 0.0
25/02:30am 21.2 24.5 19.1 88 1.3 CALM 0 0 0 0 1010.1 1010.0 0.0
25/02:00am 21.6 24.9 19.2 86 1.5 CALM 0 0 0 0 1010.1 1010.0 0.0
25/01:30am 22.5 26.8 21.1 92 0.9 CALM 0 0 0 0 1010.1 1010.0 0.0
25/01:00am 22.5 26.2 20.0 86 1.6 CALM 0 0 0 0 1010.3 1010.2 0.0
25/12:30am 23.2 27.4 20.9 87 1.5 CALM 0 6 0 3 1010.5 1010.4 0.0
25/12:00am 23.4 26.2 20.5 84 1.9 NE 6 7 3 4 1010.8 1010.7 0.0
 
Date/Time
CST
Temp
°C
App
Temp
°C
Dew
Point
°C
Rel
Hum
%
Delta-T
°C
Wind Press
QNH
hPa
Press
MSL
hPa
Rain since
9am
mm
Dir  Spd
km/h
Gust
km/h
Spd
kts
Gust
kts
24/11:30pm 23.8 26.2 20.9 84 1.9 NNE 9 13 5 7 1011.0 1010.9 0.0
24/11:00pm 24.3 25.4 21.2 83 2.0 NE 17 24 9 13 1011.0 1010.9 0.0
24/10:30pm 24.4 25.3 20.9 81 2.3 NNE 17 20 9 11 1011.1 1011.0 0.0
24/10:00pm 24.6 26.7 20.9 80 2.4 NNE 11 19 6 10 1011.4 1011.3 0.0
24/09:30pm 25.0 27.3 21.3 80 2.4 NNE 11 15 6 8 1011.5 1011.4 0.0
24/09:00pm 25.1 27.3 21.2 79 2.6 NNE 11 15 6 8 1011.6 1011.5 0.0
24/08:30pm 25.4 27.2 21.1 77 2.8 NNE 13 17 7 9 1011.5 1011.4 0.0
24/08:00pm 25.9 27.2 20.9 74 3.3 NNE 15 19 8 10 1011.3 1011.2 0.0
24/07:30pm 26.4 27.2 20.7 71 3.8 NNE 17 22 9 12 1011.0 1010.9 0.0
24/07:00pm 26.8 28.1 20.2 67 4.3 NNE 13 20 7 11 1010.6 1010.5 0.0
24/06:30pm 27.6 27.6 19.7 62 5.1 NNE 19 24 10 13 1010.2 1010.1 0.0
24/06:00pm 28.6 28.1 19.0 56 6.2 N 20 28 11 15 1009.9 1009.8 0.0
24/05:30pm 29.8 28.6 18.3 50 7.4 NNE 22 32 12 17 1009.6 1009.5 0.0
24/05:00pm 31.0 29.5 17.7 45 8.5 NNE 22 32 12 17 1009.2 1009.1 0.0
24/04:30pm 32.0 29.9 16.3 39 9.9 NNE 22 32 12 17 1009.0 1008.9 0.0
24/04:00pm 32.6 30.4 16.0 36 10.4 NNE 22 33 12 18 1008.9 1008.8 0.0
24/03:30pm 33.8 31.9 15.7 33 11.4 NNE 20 28 11 15 1008.9 1008.8 0.0
24/03:00pm 33.8 31.0 15.3 33 11.5 NNE 24 32 13 17 1009.1 1009.0 0.0
24/02:30pm 35.0 32.8 14.8 29 12.6 NNE 20 28 11 15 1009.3 1009.2 0.0
24/02:00pm 34.4 31.8 13.8 29 12.6 NNE 20 33 11 18 1009.6 1009.5 0.0
24/01:30pm 34.7 32.0 14.6 30 12.4 NNE 22 33 12 18 1010.0 1009.9 0.0
24/01:00pm 33.9 31.2 12.8 28 12.7 NE 19 30 10 16 1010.6 1010.5 0.0
24/12:30pm 35.3 33.2 14.6 29 12.8 NNE 19 35 10 19 1011.0 1010.9 0.0
24/12:00pm 34.1 30.3 12.4 26 13.0 NNE 24 33 13 18 1011.5 1011.4 0.0
24/11:30am 34.0 32.7 16.8 35 11.0 N 19 32 10 17 1011.9 1011.8 0.0
24/11:00am 32.4 31.8 17.5 41 9.5 NNW 17 32 9 17 1012.4 1012.3 0.0
24/10:30am 31.4 31.8 19.1 48 8.0 NNW 15 28 8 15 1012.9 1012.8 0.0
24/10:00am 30.9 30.2 18.6 48 8.0 NNW 20 30 11 16 1013.2 1013.1 0.0
24/09:30am 29.3 29.9 20.2 58 6.0 NNW 17 24 9 13 1013.5 1013.4 0.0
24/09:00am 29.5 30.3 20.6 58 5.9 N 17 22 9 12 1013.5 1013.4 0.0
24/08:30am 27.1 29.1 21.6 72 3.7 NNW 13 20 7 11 1013.3 1013.2 0.0
24/08:00am 25.0 28.7 22.3 85 1.8 NE 6 9 3 5 1013.3 1013.2 0.0
24/07:30am 22.5 27.1 21.8 96 0.5 CALM 0 0 0 0 1013.0 1012.9 0.0
24/07:00am 21.4 25.6 20.9 97 0.3 CALM 0 0 0 0 1012.8 1012.7 0.0
24/06:30am 20.6 23.9 19.9 96 0.4 N 2 11 1 6 1012.5 1012.4 0.0
24/06:00am 20.4 23.7 19.1 92 0.8 CALM 0 0 0 0 1011.8 1011.7 0.0
24/05:30am 19.7 22.4 17.7 88 1.2 CALM 0 0 0 0 1011.8 1011.7 0.0
24/05:00am 19.6 22.2 17.4 87 1.3 CALM 0 0 0 0 1011.5 1011.4 0.0
24/04:30am 20.0 22.9 18.1 89 1.2 CALM 0 0 0 0 1011.3 1011.2 0.0
24/04:00am 20.2 22.7 17.2 83 1.8 CALM 0 0 0 0 1011.2 1011.1 0.0
24/03:30am 20.7 23.8 18.6 88 1.3 CALM 0 0 0 0 1011.2 1011.1 0.0
24/03:00am 20.7 23.3 17.5 82 2.0 CALM 0 0 0 0 1011.3 1011.2 0.0
24/02:30am 20.6 23.2 17.4 82 2.0 CALM 0 0 0 0 1011.6 1011.5 0.0
24/02:00am 21.3 23.7 17.1 77 2.6 CALM 0 0 0 0 1011.9 1011.8 0.0
24/01:30am 21.9 25.0 18.7 82 2.0 CALM 0 0 0 0 1012.0 1011.9 0.0
24/01:00am 22.0 24.8 18.0 78 2.5 CALM 0 0 0 0 1012.2 1012.1 0.0
24/12:30am 22.4 25.7 19.0 81 2.2 CALM 0 0 0 0 1012.2 1012.1 0.0
24/12:00am 22.9 26.5 19.7 82 2.1 CALM 0 0 0 0 1012.3 1012.2 0.0
 
Date/Time
CST
Temp
°C
App
Temp
°C
Dew
Point
°C
Rel
Hum
%
Delta-T
°C
Wind Press
QNH
hPa
Press
MSL
hPa
Rain since
9am
mm
Dir  Spd
km/h
Gust
km/h
Spd
kts
Gust
kts
23/11:30pm 23.7 27.5 20.2 81 2.3 CALM 0 0 0 0 1012.4 1012.3 0.0
23/11:00pm 23.9 27.3 19.4 76 2.9 CALM 0 6 0 3 1012.7 1012.6 0.0
23/10:30pm 24.6 27.7 20.3 77 2.8 NNE 4 7 2 4 1012.8 1012.7 0.0
23/10:00pm 24.7 27.2 20.2 76 2.9 N 7 9 4 5 1012.8 1012.7 0.0
23/09:30pm 25.0 27.2 20.3 75 3.1 N 9 13 5 7 1012.7 1012.6 0.0
23/09:00pm 25.6 27.7 20.2 72 3.5 NNE 9 13 5 7 1012.5 1012.4 0.0
23/08:30pm 25.9 27.9 20.0 70 3.8 NNE 9 15 5 8 1012.3 1012.2 0.0
23/08:00pm 26.5 27.6 19.6 66 4.5 NNE 13 20 7 11 1011.9 1011.8 0.0
23/07:30pm 27.0 26.6 19.4 63 4.9 N 20 28 11 15 1011.6 1011.5 0.0
23/07:00pm 27.4 26.8 18.9 59 5.5 N 20 32 11 17 1011.2 1011.1 0.0
23/06:30pm 28.0 27.4 18.4 56 6.1 NNE 19 28 10 15 1010.8 1010.7 0.0
23/06:00pm 29.0 27.5 17.8 50 7.1 NNE 22 35 12 19 1010.6 1010.5 0.0
23/05:30pm 30.4 28.3 17.1 44 8.4 NNE 24 33 13 18 1010.4 1010.3 0.0
23/05:00pm 31.7 28.6 15.6 37 10.0 NNE 26 37 14 20 1010.0 1009.9 0.0
23/04:30pm 32.6 28.6 14.2 32 11.2 N 28 39 15 21 1009.7 1009.6 0.0
23/04:00pm 33.8 29.5 13.3 29 12.4 N 28 39 15 21 1009.8 1009.7 0.0
23/03:30pm 34.6 30.7 13.4 28 12.9 NNE 26 37 14 20 1009.8 1009.7 0.0
23/03:00pm 35.3 31.3 12.9 26 13.6 NNE 26 39 14 21 1009.9 1009.8 0.0
23/02:30pm 35.7 32.0 12.6 25 13.9 NE 24 33 13 18 1010.1 1010.0 0.0
23/02:00pm 36.5 32.7 11.3 22 15.0 NE 22 30 12 16 1010.4 1010.3 0.0
23/01:30pm 37.8 34.4 12.4 22 15.4 NE 22 32 12 17 1010.9 1010.8 0.0
23/01:00pm 36.0 33.1 12.3 24 14.2 N 19 28 10 15 1011.3 1011.2 0.0
23/12:30pm 35.5 33.4 13.6 26 13.4 NNE 17 28 9 15 1011.9 1011.8 0.0
23/12:00pm 34.7 33.3 15.6 32 12.0 NNE 17 28 9 15 1012.4 1012.3 0.0
23/11:30am 33.7 32.5 16.1 34 11.1 NE 17 26 9 14 1013.0 1012.9 0.0
23/11:00am 33.7 32.5 16.1 34 11.1 NNE 17 22 9 12 1013.6 1013.5 0.0
23/10:30am 33.1 32.8 17.3 39 10.1 N 15 24 8 13 1014.0 1013.9 0.0
23/10:00am 31.0 33.0 18.7 48 8.0 NW 6 11 3 6 1014.5 1014.4 0.0
23/09:30am 28.9 30.4 18.9 54 6.5 N 9 15 5 8 1014.7 1014.6 0.0
23/09:00am 27.8 30.8 20.1 63 5.0 NW 4 9 2 5 1014.7 1014.6 0.0
23/08:30am 26.3 29.5 20.4 70 3.9 NW 4 11 2 6 1014.7 1014.6 0.0
23/08:00am 24.7 28.3 20.6 78 2.7 NW 2 6 1 3 1014.6 1014.5 0.0
23/07:30am 23.2 26.2 20.9 87 1.5 WNW 6 9 3 5 1014.3 1014.2 0.0
23/07:00am 23.0 26.1 21.5 91 1.0 NW 7 9 4 5 1013.8 1013.7 0.0
23/06:30am 22.5 26.6 20.8 90 1.1 CALM 0 4 0 2 1013.5 1013.4 0.0
23/06:00am 22.7 26.0 21.5 93 0.8 S 6 7 3 4 1013.2 1013.1 0.0
23/05:30am 22.4 25.8 21.6 95 0.5 S 6 7 3 4 1013.0 1012.9 0.0
23/05:00am 22.1 25.1 21.3 95 0.5 SSE 7 7 4 4 1012.7 1012.6 0.0
23/04:30am 21.8 24.7 21.1 96 0.5 SSE 7 9 4 5 1012.4 1012.3 0.0
23/04:00am 21.1 23.8 20.6 97 0.3 S 7 7 4 4 1012.1 1012.0 0.0
23/03:30am 20.4 23.7 19.1 92 0.8 CALM 0 0 0 0 1011.9 1011.8 0.0
23/03:00am 22.2 26.7 21.5 96 0.5 CALM 0 0 0 0 1012.0 1011.9 0.0
23/02:30am 22.3 26.9 21.8 97 0.3 CALM 0 0 0 0 1012.2 1012.1 0.0
23/02:00am 22.4 26.9 21.6 95 0.5 CALM 0 0 0 0 1012.4 1012.3 0.0
23/01:30am 22.5 25.6 21.1 92 0.9 NNE 6 6 3 3 1012.6 1012.5 0.0
23/01:00am 23.1 26.5 21.7 92 0.9 NNE 6 7 3 4 1012.8 1012.7 0.0
23/12:30am 23.5 28.1 21.8 90 1.1 CALM 0 6 0 3 1013.1 1013.0 0.0
23/12:00am 23.8 27.6 21.7 88 1.4 NNE 4 9 2 5 1013.4 1013.3 0.0
 
Date/Time
CST
Temp
°C
App
Temp
°C
Dew
Point
°C
Rel
Hum
%
Delta-T
°C
Wind Press
QNH
hPa
Press
MSL
hPa
Rain since
9am
mm
Dir  Spd
km/h
Gust
km/h
Spd
kts
Gust
kts
22/11:30pm 24.1 25.9 21.8 87 1.5 N 15 19 8 10 1013.5 1013.4 0.0
22/11:00pm 23.9 25.2 21.6 87 1.5 NNE 17 24 9 13 1013.5 1013.4 0.0
22/10:30pm 24.1 25.8 21.6 86 1.7 NNE 15 20 8 11 1013.5 1013.4 0.0
22/10:00pm 24.3 26.3 21.6 85 1.8 NNE 13 17 7 9 1013.6 1013.5 0.0
22/09:30pm 24.5 26.7 21.2 82 2.2 NNE 11 13 6 7 1013.7 1013.6 0.0
22/09:00pm 24.8 27.1 21.3 81 2.3 NNE 11 17 6 9 1013.6 1013.5 0.0
22/08:30pm 25.1 27.0 21.4 80 2.4 NNE 13 17 7 9 1013.4 1013.3 0.0
22/08:00pm 25.7 26.9 20.7 74 3.3 NNE 15 19 8 10 1012.9 1012.8 0.0
22/07:30pm 26.5 26.8 19.6 66 4.5 N 17 22 9 12 1012.6 1012.5 0.0
22/07:00pm 27.4 26.7 18.7 59 5.6 NNE 20 26 11 14 1012.2 1012.1 0.0
22/06:30pm 28.7 28.0 18.2 53 6.7 NNE 19 28 10 15 1011.8 1011.7 0.0
22/06:00pm 30.4 29.2 17.1 44 8.4 NNE 19 26 10 14 1011.3 1011.2 0.0

Other Formats:

Comma delimited format used in spreadsheet applications
http://www.bom.gov.au/fwo/IDD60801/IDD60801.94152.axf

JavaScript Object Notation format (JSON) in row-major order
http://www.bom.gov.au/fwo/IDD60801/IDD60801.94152.json